createdAt,value
2018-07-05T00:00:18.295Z,3.27
2018-07-05T00:02:58.089Z,3.63
2018-07-05T00:05:37.842Z,3.57
2018-07-05T00:08:17.670Z,3.40
2018-07-05T00:10:57.423Z,3.20
2018-07-05T00:13:37.107Z,3.33
2018-07-05T00:16:16.820Z,3.10
2018-07-05T00:18:56.617Z,3.27
2018-07-05T00:21:36.415Z,2.93
2018-07-05T00:24:16.146Z,2.83
2018-07-05T00:26:55.834Z,2.90
2018-07-05T00:29:35.687Z,3.30
2018-07-05T00:32:15.578Z,2.90
2018-07-05T00:34:55.324Z,3.20
2018-07-05T00:37:34.971Z,3.30
2018-07-05T00:40:14.734Z,3.57
2018-07-05T00:42:54.572Z,3.30
2018-07-05T00:45:34.102Z,3.03
2018-07-05T00:48:13.848Z,3.23
2018-07-05T00:50:53.591Z,3.00
2018-07-05T00:53:33.327Z,4.17
2018-07-05T00:56:12.855Z,3.87
2018-07-05T00:58:53.074Z,3.13
2018-07-05T01:01:32.975Z,3.20
2018-07-05T01:04:12.782Z,2.97
2018-07-05T01:06:52.515Z,3.00
2018-07-05T01:09:32.387Z,3.47
2018-07-05T01:12:12.091Z,3.87
2018-07-05T01:14:51.927Z,3.97
2018-07-05T01:17:31.707Z,4.40
2018-07-05T01:20:11.456Z,5.77
2018-07-05T01:23:54.415Z,4.07
2018-07-05T01:26:34.115Z,2.93
2018-07-05T01:29:13.747Z,3.00
2018-07-05T01:31:53.533Z,2.50
2018-07-05T01:34:33.380Z,2.97
2018-07-05T01:37:13.146Z,2.67
2018-07-05T01:39:52.786Z,2.40
2018-07-05T01:42:32.709Z,2.83
2018-07-05T01:45:12.311Z,2.70
2018-07-05T01:47:51.998Z,2.90
2018-07-05T01:50:31.832Z,2.93
2018-07-05T01:53:11.455Z,3.00
2018-07-05T01:55:51.034Z,2.90
2018-07-05T01:58:30.603Z,3.10
2018-07-05T02:01:10.235Z,2.43
2018-07-05T02:03:50.035Z,3.00
2018-07-05T02:06:29.799Z,2.97
2018-07-05T02:09:09.440Z,2.43
2018-07-05T02:11:49.147Z,3.80
2018-07-05T02:14:29.167Z,3.30
2018-07-05T02:17:08.854Z,3.73
2018-07-05T02:19:48.638Z,8.10
2018-07-05T02:22:28.298Z,4.63
2018-07-05T02:25:07.999Z,3.20
2018-07-05T02:27:47.723Z,2.50
2018-07-05T02:30:27.414Z,2.77
2018-07-05T02:33:07.286Z,2.87
2018-07-05T02:35:47.298Z,2.60
2018-07-05T02:38:26.915Z,3.00
2018-07-05T02:41:06.446Z,3.00
2018-07-05T02:43:46.067Z,2.70
2018-07-05T02:46:25.691Z,2.90
2018-07-05T02:49:05.615Z,2.40
2018-07-05T02:51:45.315Z,3.20
2018-07-05T02:54:25.131Z,3.00
2018-07-05T02:57:04.602Z,2.60
2018-07-05T02:59:44.418Z,3.00
2018-07-05T03:02:24.132Z,2.90
2018-07-05T03:05:03.840Z,2.70
2018-07-05T03:07:43.422Z,2.87
2018-07-05T03:10:23.096Z,2.73
2018-07-05T03:13:02.760Z,3.37
2018-07-05T03:15:42.603Z,2.97
2018-07-05T03:18:22.299Z,2.93
2018-07-05T03:21:01.981Z,3.00
2018-07-05T03:23:42.096Z,3.40
2018-07-05T03:26:21.822Z,3.10
2018-07-05T03:29:01.543Z,2.80
2018-07-05T03:31:41.369Z,3.30
2018-07-05T03:34:20.842Z,3.80
2018-07-05T03:37:00.987Z,3.73
2018-07-05T03:39:40.712Z,4.70
2018-07-05T03:42:20.414Z,4.17
2018-07-05T03:44:59.931Z,4.43
2018-07-05T03:47:39.504Z,4.47
2018-07-05T03:50:19.275Z,6.30
2018-07-05T03:52:59.000Z,5.00
2018-07-05T03:55:38.571Z,5.53
2018-07-05T03:58:18.174Z,5.70
2018-07-05T04:00:57.974Z,6.10
2018-07-05T04:03:37.535Z,6.07
2018-07-05T04:06:17.267Z,6.97
2018-07-05T04:08:57.127Z,7.20
2018-07-05T04:11:36.719Z,7.63
2018-07-05T04:14:16.204Z,7.27
2018-07-05T04:16:56.030Z,6.80
2018-07-05T04:19:39.951Z,7.40
2018-07-05T04:22:19.675Z,6.03
2018-07-05T04:24:59.324Z,6.43
2018-07-05T04:27:38.873Z,6.87
2018-07-05T04:30:18.555Z,6.30
2018-07-05T04:32:58.347Z,6.37
2018-07-05T04:35:38.075Z,5.97
2018-07-05T04:38:17.798Z,5.90
2018-07-05T04:40:57.795Z,5.97
2018-07-05T04:43:37.444Z,5.80
2018-07-05T04:46:17.223Z,5.43
2018-07-05T04:48:56.847Z,5.60
2018-07-05T04:51:37.048Z,5.53
2018-07-05T04:54:16.635Z,5.50
2018-07-05T04:56:56.149Z,5.40
2018-07-05T04:59:35.915Z,5.30
2018-07-05T05:02:15.679Z,5.30
2018-07-05T05:04:55.500Z,5.13
2018-07-05T05:07:35.060Z,4.50
2018-07-05T05:10:14.731Z,4.70
2018-07-05T05:12:57.910Z,4.40
2018-07-05T05:15:37.983Z,4.97
2018-07-05T05:18:17.707Z,5.17
2018-07-05T05:20:57.498Z,5.60
2018-07-05T05:23:37.323Z,5.47
2018-07-05T05:26:16.871Z,6.07
2018-07-05T05:28:56.705Z,6.67
2018-07-05T05:31:36.245Z,6.30
2018-07-05T05:34:15.997Z,5.07
2018-07-05T05:36:55.594Z,5.57
2018-07-05T05:39:35.179Z,5.83
2018-07-05T05:42:14.912Z,5.63
2018-07-05T05:44:54.690Z,5.07
2018-07-05T05:47:34.452Z,5.30
2018-07-05T05:50:14.102Z,4.90
2018-07-05T05:52:53.825Z,4.63
2018-07-05T05:55:33.763Z,4.27
2018-07-05T05:58:13.383Z,3.83
2018-07-05T06:00:53.049Z,4.17
2018-07-05T06:03:32.730Z,4.13
2018-07-05T06:06:12.555Z,4.40
2018-07-05T06:08:52.108Z,3.97
2018-07-05T06:11:32.327Z,4.07
2018-07-05T06:14:12.358Z,4.27
2018-07-05T06:16:52.467Z,4.73
2018-07-05T06:19:32.189Z,4.03
2018-07-05T06:22:12.083Z,4.90
2018-07-05T06:24:51.539Z,4.20
2018-07-05T06:27:31.414Z,4.60
2018-07-05T06:30:11.073Z,4.20
2018-07-05T06:32:50.960Z,5.23
2018-07-05T06:35:30.966Z,4.30
2018-07-05T06:38:10.574Z,3.73
2018-07-05T06:40:50.198Z,3.63
2018-07-05T06:43:30.021Z,3.43
2018-07-05T06:46:09.491Z,3.40
2018-07-05T06:48:49.136Z,3.70
2018-07-05T06:51:28.762Z,3.33
2018-07-05T06:54:08.609Z,3.60
2018-07-05T06:56:48.283Z,3.37
2018-07-05T06:59:21.929Z,3.37
2018-07-05T07:02:01.629Z,3.00
2018-07-05T07:04:41.397Z,3.50
2018-07-05T07:07:21.193Z,2.90
2018-07-05T07:10:00.995Z,2.70
2018-07-05T07:12:40.608Z,3.73
2018-07-05T07:15:20.386Z,3.30
2018-07-05T07:17:59.927Z,3.03
2018-07-05T07:20:39.747Z,3.00
2018-07-05T07:23:19.491Z,3.13
2018-07-05T07:25:59.114Z,3.33
2018-07-05T07:28:39.029Z,3.33
2018-07-05T07:31:18.805Z,4.40
2018-07-05T07:33:58.522Z,3.20
2018-07-05T07:36:38.240Z,3.43
2018-07-05T07:39:17.944Z,3.00
2018-07-05T07:41:48.487Z,3.43
2018-07-05T07:44:16.807Z,3.93
2018-07-05T07:46:44.480Z,4.20
2018-07-05T07:49:11.775Z,4.17
2018-07-05T07:51:39.063Z,3.90
2018-07-05T07:54:06.330Z,4.73
2018-07-05T07:56:33.594Z,6.30
2018-07-05T07:59:00.886Z,5.47
2018-07-05T08:01:28.179Z,4.67
2018-07-05T08:03:55.427Z,5.50
2018-07-05T08:06:22.724Z,4.43
2018-07-05T08:08:49.946Z,4.10
2018-07-05T08:11:17.211Z,4.40
2018-07-05T08:13:44.550Z,4.60
2018-07-05T08:16:11.821Z,4.40
2018-07-05T08:18:39.194Z,5.07
2018-07-05T08:21:06.535Z,4.93
2018-07-05T08:23:33.787Z,4.20
2018-07-05T08:26:01.051Z,3.97
2018-07-05T08:28:28.671Z,4.03
2018-07-05T08:30:55.999Z,3.73
2018-07-05T08:33:23.304Z,3.73
2018-07-05T08:35:50.547Z,4.30
2018-07-05T08:38:17.895Z,3.40
2018-07-05T08:40:45.264Z,3.40
2018-07-05T08:43:12.560Z,3.83
2018-07-05T08:45:40.058Z,4.13
2018-07-05T08:48:07.368Z,3.77
2018-07-05T08:50:34.608Z,3.53
2018-07-05T08:53:01.893Z,3.67
2018-07-05T08:55:29.143Z,3.23
2018-07-05T08:57:56.574Z,3.63
2018-07-05T09:00:23.855Z,3.73
2018-07-05T09:02:51.162Z,3.60
2018-07-05T09:05:18.486Z,3.30
2018-07-05T09:07:45.735Z,3.67
2018-07-05T09:10:13.005Z,3.43
2018-07-05T09:12:40.285Z,3.70
2018-07-05T09:15:07.542Z,4.40
2018-07-05T09:17:34.884Z,3.80
2018-07-05T09:20:02.199Z,3.53
2018-07-05T09:22:29.500Z,3.40
2018-07-05T09:24:56.835Z,3.50
2018-07-05T09:27:24.096Z,3.17
2018-07-05T09:29:51.402Z,3.67
2018-07-05T09:32:18.642Z,3.63
2018-07-05T09:34:46.003Z,3.37
2018-07-05T09:37:13.444Z,3.13
2018-07-05T09:39:40.641Z,3.67
2018-07-05T09:42:08.084Z,3.40
2018-07-05T09:44:35.414Z,3.57
2018-07-05T09:47:02.776Z,3.40
2018-07-05T09:49:30.154Z,3.63
2018-07-05T09:51:57.499Z,3.50
2018-07-05T09:54:24.763Z,3.67
2018-07-05T09:56:52.024Z,4.03
2018-07-05T09:59:19.340Z,3.47
2018-07-05T10:01:46.723Z,3.53
2018-07-05T10:04:14.172Z,3.40
2018-07-05T10:06:41.502Z,3.90
2018-07-05T10:09:08.751Z,3.30
2018-07-05T10:11:36.014Z,3.50
2018-07-05T10:14:03.259Z,3.43
2018-07-05T10:16:30.526Z,3.20
2018-07-05T10:18:58.080Z,3.00
2018-07-05T10:21:25.389Z,3.80
2018-07-05T10:23:52.634Z,3.30
2018-07-05T10:26:19.895Z,4.00
2018-07-05T10:28:59.420Z,3.53
2018-07-05T10:31:39.554Z,3.70
2018-07-05T10:34:06.869Z,3.33
2018-07-05T10:36:34.139Z,3.70
2018-07-05T10:39:01.392Z,3.30
2018-07-05T10:41:41.146Z,3.30
2018-07-05T10:44:20.792Z,3.33
2018-07-05T10:47:00.495Z,3.80
2018-07-05T10:49:40.411Z,3.93
2018-07-05T10:52:20.277Z,4.10
2018-07-05T10:54:59.972Z,3.47
2018-07-05T10:57:39.821Z,3.97
2018-07-05T11:00:19.504Z,3.70
2018-07-05T11:02:59.597Z,3.60
2018-07-05T11:05:39.736Z,3.80
2018-07-05T11:08:19.562Z,4.10
2018-07-05T11:10:53.620Z,3.20
2018-07-05T11:13:33.154Z,3.60
2018-07-05T11:16:12.764Z,3.03
2018-07-05T11:18:52.381Z,3.20
2018-07-05T11:21:31.948Z,3.70
2018-07-05T11:24:11.703Z,3.63
2018-07-05T11:26:51.431Z,3.40
2018-07-05T11:29:31.226Z,2.93
2018-07-05T11:32:11.218Z,3.23
2018-07-05T11:34:50.810Z,3.17
2018-07-05T11:37:30.543Z,3.30
2018-07-05T11:40:10.336Z,3.67
2018-07-05T11:42:50.045Z,3.20
2018-07-05T11:45:29.654Z,3.27
2018-07-05T11:48:03.396Z,3.10
2018-07-05T11:50:43.201Z,3.60
2018-07-05T11:53:22.756Z,3.17
2018-07-05T11:56:02.560Z,3.13
2018-07-05T11:58:42.169Z,3.43
2018-07-05T12:01:21.737Z,3.73
2018-07-05T12:04:01.365Z,3.80
2018-07-05T12:06:41.036Z,3.77
2018-07-05T12:09:20.840Z,3.57
2018-07-05T12:12:00.459Z,3.93
2018-07-05T12:14:40.105Z,3.97
2018-07-05T12:17:19.827Z,3.80
2018-07-05T12:19:59.698Z,3.47
2018-07-05T12:22:39.483Z,3.70
2018-07-05T12:25:19.002Z,3.40
2018-07-05T12:27:58.785Z,2.67
2018-07-05T12:30:38.479Z,2.70
2018-07-05T12:33:18.331Z,2.63
2018-07-05T12:35:57.824Z,2.33
2018-07-05T12:38:37.641Z,2.00
2018-07-05T12:41:17.319Z,2.27
2018-07-05T12:43:56.982Z,2.20
2018-07-05T12:46:36.659Z,2.13
2018-07-05T12:49:16.467Z,2.20
2018-07-05T12:51:56.250Z,2.20
2018-07-05T12:55:06.866Z,2.20
2018-07-05T12:57:46.505Z,1.70
2018-07-05T13:00:26.146Z,1.80
2018-07-05T13:03:05.662Z,2.03
2018-07-05T13:05:45.544Z,2.50
2018-07-05T13:08:25.181Z,2.30
2018-07-05T13:11:04.869Z,2.10
2018-07-05T13:13:44.585Z,2.10
2018-07-05T13:16:18.313Z,2.17
2018-07-05T13:18:59.092Z,2.53
2018-07-05T13:21:40.026Z,2.27
2018-07-05T13:24:19.908Z,2.40
2018-07-05T13:26:59.656Z,2.00
2018-07-05T13:29:39.496Z,2.00
2018-07-05T13:32:19.219Z,2.23
2018-07-05T13:34:58.973Z,2.30
2018-07-05T13:37:38.584Z,2.10
2018-07-05T13:40:18.166Z,2.30
2018-07-05T13:42:57.886Z,2.10
2018-07-05T13:45:37.558Z,2.60
2018-07-05T13:48:17.415Z,2.30
2018-07-05T13:50:57.329Z,2.50
2018-07-05T13:53:37.407Z,2.13
2018-07-05T13:56:17.099Z,2.97
2018-07-05T13:58:56.826Z,1.80
2018-07-05T14:01:36.439Z,2.00
2018-07-05T14:04:16.039Z,2.63
2018-07-05T14:06:55.628Z,2.27
2018-07-05T14:09:35.306Z,2.53
2018-07-05T14:12:14.965Z,2.20
2018-07-05T14:14:54.780Z,2.13
2018-07-05T14:17:34.491Z,2.30
2018-07-05T14:20:14.155Z,2.50
2018-07-05T14:22:53.858Z,2.67
2018-07-05T14:25:33.627Z,2.60
2018-07-05T14:28:13.263Z,2.50
2018-07-05T14:30:52.803Z,2.30
2018-07-05T14:33:32.668Z,2.43
2018-07-05T14:36:12.198Z,2.20
2018-07-05T14:38:51.944Z,2.30
2018-07-05T14:41:31.742Z,2.20
2018-07-05T14:44:11.616Z,2.40
2018-07-05T14:46:51.308Z,2.30
2018-07-05T14:49:30.999Z,2.00
2018-07-05T14:52:10.790Z,2.10
2018-07-05T14:54:50.459Z,2.10
2018-07-05T14:57:30.305Z,2.40
2018-07-05T15:00:10.075Z,2.40
2018-07-05T15:02:49.527Z,2.13
2018-07-05T15:05:29.188Z,1.97
2018-07-05T15:08:09.039Z,1.77
2018-07-05T15:10:48.631Z,1.90
2018-07-05T15:13:28.211Z,2.33
2018-07-05T15:16:07.913Z,2.20
2018-07-05T15:18:47.715Z,2.80
2018-07-05T15:21:27.444Z,2.60
2018-07-05T15:24:07.129Z,2.47
2018-07-05T15:26:46.799Z,2.73
2018-07-05T15:29:26.569Z,2.90
2018-07-05T15:32:06.320Z,2.83
2018-07-05T15:34:46.068Z,3.30
2018-07-05T15:37:25.954Z,3.30
2018-07-05T15:40:05.622Z,3.40
2018-07-05T15:42:45.255Z,3.20
2018-07-05T15:45:25.044Z,3.37
2018-07-05T15:48:04.761Z,2.77
2018-07-05T15:50:44.745Z,3.07
2018-07-05T15:53:24.569Z,3.33
2018-07-05T15:56:04.379Z,3.20
2018-07-05T15:58:44.130Z,3.30
2018-07-05T16:01:23.707Z,3.40
2018-07-05T16:04:03.276Z,3.93
2018-07-05T16:06:43.131Z,3.50
2018-07-05T16:09:23.119Z,3.67
2018-07-05T16:12:02.963Z,3.70
2018-07-05T16:14:42.468Z,3.70
2018-07-05T16:17:22.168Z,3.70
2018-07-05T16:20:01.883Z,3.87
2018-07-05T16:22:41.603Z,3.97
2018-07-05T16:25:21.260Z,3.73
2018-07-05T16:28:01.022Z,3.57
2018-07-05T16:30:40.954Z,3.60
2018-07-05T16:33:20.607Z,4.03
2018-07-05T16:36:00.223Z,3.60
2018-07-05T16:38:39.772Z,4.37
2018-07-05T16:41:19.481Z,3.73
2018-07-05T16:43:59.266Z,3.27
2018-07-05T16:46:38.973Z,3.50
2018-07-05T16:49:18.401Z,3.87
2018-07-05T16:51:57.998Z,3.30
2018-07-05T16:54:37.705Z,3.17
2018-07-05T16:57:17.347Z,3.07
2018-07-05T16:59:57.140Z,3.33
2018-07-05T17:02:37.019Z,3.90
2018-07-05T17:05:16.803Z,2.90
2018-07-05T17:07:56.451Z,3.53
2018-07-05T17:10:36.145Z,3.33
2018-07-05T17:13:15.972Z,3.33
2018-07-05T17:15:55.745Z,3.00
2018-07-05T17:18:35.618Z,3.67
2018-07-05T17:21:15.359Z,3.20
2018-07-05T17:23:55.139Z,3.43
2018-07-05T17:26:34.916Z,3.43
2018-07-05T17:29:14.619Z,3.10
2018-07-05T17:31:54.794Z,3.07
2018-07-05T17:34:34.400Z,3.50
2018-07-05T17:37:14.202Z,3.40
2018-07-05T17:39:54.021Z,3.20
2018-07-05T17:42:33.895Z,3.60
2018-07-05T17:45:08.890Z,3.27
2018-07-05T17:47:49.075Z,3.27
2018-07-05T17:50:22.778Z,3.00
2018-07-05T17:53:02.558Z,3.07
2018-07-05T17:55:42.339Z,3.00
2018-07-05T17:58:21.847Z,3.40
2018-07-05T18:01:01.556Z,3.20
2018-07-05T18:03:41.271Z,3.30
2018-07-05T18:06:21.108Z,3.00
2018-07-05T18:09:00.912Z,3.43
2018-07-05T18:11:40.727Z,3.33
2018-07-05T18:14:20.421Z,3.53
2018-07-05T18:17:00.132Z,3.10
2018-07-05T18:19:39.946Z,2.80
2018-07-05T18:22:19.671Z,3.00
2018-07-05T18:24:59.356Z,2.87
2018-07-05T18:27:39.027Z,3.47
2018-07-05T18:30:18.672Z,3.10
2018-07-05T18:32:58.782Z,3.13
2018-07-05T18:35:38.536Z,2.57
2018-07-05T18:38:18.210Z,3.10
2018-07-05T18:40:58.322Z,2.77
2018-07-05T18:43:38.086Z,2.67
2018-07-05T18:46:17.831Z,2.93
2018-07-05T18:48:57.432Z,2.87
2018-07-05T18:51:37.244Z,3.30
2018-07-05T18:54:16.896Z,3.10
2018-07-05T18:56:56.712Z,2.70
2018-07-05T18:59:36.262Z,2.77
2018-07-05T19:02:15.852Z,2.93
2018-07-05T19:04:55.437Z,3.23
2018-07-05T19:07:35.047Z,2.70
2018-07-05T19:10:14.604Z,2.90
2018-07-05T19:12:54.325Z,2.73
2018-07-05T19:15:33.920Z,2.50
2018-07-05T19:18:13.671Z,2.80
2018-07-05T19:20:53.439Z,2.60
2018-07-05T19:23:33.245Z,2.77
2018-07-05T19:26:13.071Z,2.60
2018-07-05T19:28:52.916Z,2.93
2018-07-05T19:31:32.555Z,3.17
2018-07-05T19:34:12.312Z,3.20
2018-07-05T19:36:52.133Z,3.10
2018-07-05T19:39:31.602Z,2.80
2018-07-05T19:42:11.290Z,2.87
2018-07-05T19:44:51.957Z,3.30
2018-07-05T19:47:31.507Z,3.00
2018-07-05T19:50:11.312Z,2.90
2018-07-05T19:52:51.214Z,3.13
2018-07-05T19:55:31.490Z,3.17
2018-07-05T19:58:11.556Z,2.73
2018-07-05T20:00:51.186Z,3.10
2018-07-05T20:03:30.924Z,2.70
2018-07-05T20:06:10.584Z,3.07
2018-07-05T20:08:50.553Z,2.77
2018-07-05T20:11:30.200Z,2.87
2018-07-05T20:14:09.838Z,3.03
2018-07-05T20:17:52.604Z,2.80
2018-07-05T20:20:32.341Z,2.77
2018-07-05T20:23:12.205Z,2.73
2018-07-05T20:25:53.146Z,2.53
2018-07-05T20:28:33.308Z,3.57
2018-07-05T20:31:13.095Z,2.50
2018-07-05T20:33:52.828Z,2.67
2018-07-05T20:36:32.359Z,3.17
2018-07-05T20:39:12.059Z,4.00
2018-07-05T20:41:52.011Z,3.10
2018-07-05T20:44:31.783Z,2.97
2018-07-05T20:47:11.851Z,2.47
2018-07-05T20:49:51.463Z,2.80
2018-07-05T20:52:31.363Z,2.90
2018-07-05T20:55:11.084Z,2.93
2018-07-05T20:57:50.865Z,2.60
2018-07-05T21:00:30.567Z,2.90
2018-07-05T21:03:10.537Z,2.80
2018-07-05T21:05:50.162Z,2.63
2018-07-05T21:08:29.665Z,2.63
2018-07-05T21:11:09.536Z,3.53
2018-07-05T21:13:49.195Z,6.33
2018-07-05T21:16:28.991Z,9.80
2018-07-05T21:19:08.772Z,6.77
2018-07-05T21:21:48.441Z,4.10
2018-07-05T21:24:28.376Z,4.50
2018-07-05T21:27:07.952Z,3.50
2018-07-05T21:29:47.803Z,2.77
2018-07-05T21:32:27.567Z,2.77
2018-07-05T21:35:07.354Z,2.60
2018-07-05T21:37:47.047Z,2.80
2018-07-05T21:40:26.731Z,3.00
2018-07-05T21:43:06.544Z,2.87
2018-07-05T21:45:46.178Z,2.90
2018-07-05T21:48:25.903Z,3.03
2018-07-05T21:51:05.566Z,2.70
2018-07-05T21:53:45.301Z,2.90
2018-07-05T21:56:25.104Z,2.80
2018-07-05T21:59:04.949Z,3.23
2018-07-05T22:01:44.653Z,2.80
2018-07-05T22:04:18.355Z,3.43
2018-07-05T22:06:58.783Z,2.90
2018-07-05T22:09:38.420Z,3.23
2018-07-05T22:12:18.198Z,3.13
2018-07-05T22:14:57.992Z,4.10
2018-07-05T22:17:43.253Z,3.93
2018-07-05T22:20:28.333Z,3.43
2018-07-05T22:23:13.436Z,3.83
2018-07-05T22:25:58.551Z,2.87
2018-07-05T22:29:41.364Z,3.77
2018-07-05T22:32:20.907Z,3.33
2018-07-05T22:35:00.625Z,3.13
2018-07-05T22:37:40.450Z,3.20
2018-07-05T22:40:20.205Z,3.10
2018-07-05T22:42:59.827Z,2.97
2018-07-05T22:45:39.820Z,2.77
2018-07-05T22:48:19.708Z,3.00
2018-07-05T22:50:59.407Z,3.00
2018-07-05T22:53:39.051Z,3.27
2018-07-05T22:56:18.692Z,2.90
2018-07-05T22:58:58.416Z,2.93
2018-07-05T23:01:38.195Z,3.07
2018-07-05T23:04:18.009Z,2.87
2018-07-05T23:06:57.679Z,3.17
2018-07-05T23:09:37.533Z,2.90
2018-07-05T23:12:17.352Z,3.10
2018-07-05T23:14:57.143Z,3.10
2018-07-05T23:17:36.823Z,3.67
2018-07-05T23:20:16.517Z,3.10
2018-07-05T23:22:56.152Z,3.20
2018-07-05T23:25:35.967Z,3.17
2018-07-05T23:28:15.682Z,3.07
2018-07-05T23:30:55.489Z,3.30
2018-07-05T23:33:35.293Z,3.23
2018-07-05T23:36:15.085Z,3.57
2018-07-05T23:38:54.582Z,3.43
2018-07-05T23:41:34.347Z,3.67
2018-07-05T23:44:14.104Z,3.00
2018-07-05T23:46:53.752Z,3.43
2018-07-05T23:49:33.426Z,3.40
2018-07-05T23:52:12.975Z,3.83
2018-07-05T23:54:52.614Z,3.93
2018-07-05T23:57:32.288Z,3.77
